Big Lake, AK

06:54 AM AKST ar Tachwedd 19, 2017 (GMT -0900)
Burkeshore Drive on Big Lake | | Change Station

Elev 154 ft 61.54 °N, 149.85 °W | Updated 4 minutes ago

Eira
Eira
17.6 °F
Feels Like 18 °F
N
2.0
Gwynt Cyfnewidiol Gwynt from DwGDw
Gusts 4.0 mph

Heddiw
High -- | Low -- °F
--% Chance of Precip.
Yesterday
High -- | Low -- °F
Precip. -- mod
Gwasgedd 29.36 mod
Gwelededd 1.8 Milltiroedd
Clouds Cymylog 1400 ft
Oerfel Gwynt 18 °F
Gwlithbwynt 16 °F
Lleithder 92%
Rainfall 0.00 mod
Snow Depth Not available.
9:19 AM 4:10 PM
New, 1% visible
SPECI PAWS 191543Z AUTO 06014G18KT 1 3/4SM -SN BR OVC014 M08/M10 A2936 RMK AO2 P0000 FZRANO
Gwasgedd 29.36 mod
Gwelededd 1.8 Milltiroedd
Clouds Cymylog 1400 ft
Oerfel Gwynt 18 °F
Gwlithbwynt 16 °F
Lleithder 92%
Rainfall 0.00 mod
Snow Depth Not available.
9:19 AM 4:10 PM
New, 1% visible
SPECI PAWS 191543Z AUTO 06014G18KT 1 3/4SM -SN BR OVC014 M08/M10 A2936 RMK AO2 P0000 FZRANO

Get Severe Weather Alerts

Thanks for signing up!

Be on the lookout for a verification email in your inbox.

You'll start receiving the daily forecast at 6 AM.

×

10-Day Weather Forecast

Almanac

Astronomy

Nov. 19, 2017 Rise Set
Actual Time
Civil Twilight
Nautical Twilight
Astronomical Twilight
Moon
Length Of Visible Light
Length of Day
Tomorrow will be .
, % of the Moon is Illuminated

Today's Extremes

State Highs State Lows

Community

WunderPhotos

Category 6

Welcome to Category 6. This is the collective home for Weather Underground's featured writeups by Dr. Jeff Masters (right), Bob Henson (left), Chris Burt, and other regular contributors.

Nearby

Air Quality

  Air Quality AQ Index Pollutant
Not available.

Snow Depth

Station Depth Elevation

Earthquake Activity

City Distance Mag. Time & Date
Minimum magnitude displayed is 2.5.

Coastal Water Temperatures

Lle Tymheredd

Stations

Nearby Weather Stations

Station Location Temp Oerfel Gwynt Gwlithbwynt Lleithder Gwynt Precip. Elev Diweddarwyd Type
                   

Watches & Warnings

There are currently no watches in effect.